createdAt,value
2024-03-06T00:03:17.389Z,68.78
2024-03-06T00:07:09.614Z,68.85
2024-03-06T00:10:57.592Z,69.36
2024-03-06T00:14:38.534Z,69.04
2024-03-06T00:18:15.511Z,69.13
2024-03-06T00:22:11.898Z,69.42
2024-03-06T00:25:58.112Z,69.40
2024-03-06T00:29:55.097Z,69.90
2024-03-06T00:38:03.283Z,70.10
2024-03-06T00:45:57.197Z,70.63
2024-03-06T00:49:45.927Z,70.53
2024-03-06T00:53:33.896Z,70.46
2024-03-06T00:57:14.686Z,70.95
2024-03-06T01:01:06.130Z,71.20
2024-03-06T01:04:54.140Z,71.07
2024-03-06T01:08:45.301Z,70.92
2024-03-06T01:12:33.327Z,71.26
2024-03-06T01:16:19.779Z,71.11
2024-03-06T01:19:58.544Z,71.63
2024-03-06T01:23:32.567Z,71.52
2024-03-06T01:27:30.058Z,71.09
2024-03-06T01:35:02.483Z,71.61
2024-03-06T01:38:53.601Z,71.44
2024-03-06T01:42:43.224Z,71.65
2024-03-06T01:46:24.043Z,71.55
2024-03-06T01:50:04.139Z,71.42
2024-03-06T01:54:00.131Z,72.04
2024-03-06T01:57:47.007Z,72.11
2024-03-06T02:05:31.690Z,71.98
2024-03-06T02:08:57.808Z,71.87
2024-03-06T02:12:38.422Z,72.37
2024-03-06T02:20:28.934Z,72.13
2024-03-06T02:24:15.698Z,72.56
2024-03-06T02:27:56.287Z,72.81
2024-03-06T02:31:29.912Z,72.74
2024-03-06T02:35:19.962Z,72.71
2024-03-06T02:38:38.134Z,72.76
2024-03-06T02:42:10.828Z,72.80
2024-03-06T02:46:00.525Z,73.24
2024-03-06T02:49:41.268Z,73.20
2024-03-06T02:53:19.843Z,73.32
2024-03-06T02:56:54.366Z,73.41
2024-03-06T03:00:33.122Z,73.47
2024-03-06T03:04:14.938Z,73.55
2024-03-06T03:07:46.932Z,73.51
2024-03-06T03:15:48.152Z,73.64
2024-03-06T03:19:30.005Z,73.54
2024-03-06T03:23:18.652Z,73.78
2024-03-06T03:26:59.813Z,73.67
2024-03-06T03:30:26.018Z,73.74
2024-03-06T03:33:53.599Z,73.80
2024-03-06T03:37:44.910Z,73.84
2024-03-06T03:41:20.233Z,74.00
2024-03-06T03:45:08.313Z,73.89
2024-03-06T03:48:59.466Z,74.15
2024-03-06T03:52:43.474Z,73.95
2024-03-06T03:56:33.808Z,74.21
2024-03-06T04:00:22.829Z,74.51
2024-03-06T04:04:10.776Z,74.24
2024-03-06T04:07:58.884Z,74.23
2024-03-06T04:11:48.813Z,74.38
2024-03-06T04:15:32.365Z,74.32
2024-03-06T04:18:48.784Z,74.48
2024-03-06T04:22:35.987Z,74.48
2024-03-06T04:26:20.380Z,74.49
2024-03-06T04:30:08.766Z,74.33
2024-03-06T04:33:27.415Z,74.65
2024-03-06T04:41:24.629Z,74.71
2024-03-06T04:45:12.670Z,74.56
2024-03-06T04:49:00.457Z,74.78
2024-03-06T04:52:45.193Z,74.77
2024-03-06T04:56:24.352Z,74.93
2024-03-06T05:00:12.625Z,74.99
2024-03-06T06:00:40.145Z,66.93
2024-03-06T06:04:19.620Z,63.70
2024-03-06T06:08:06.548Z,61.98
2024-03-06T06:12:09.680Z,59.67
2024-03-06T06:15:54.619Z,57.26
2024-03-06T06:19:52.027Z,55.86
2024-03-06T06:23:35.267Z,53.04
2024-03-06T06:27:04.725Z,50.63
2024-03-06T06:30:25.506Z,49.20
2024-03-06T06:33:51.273Z,48.64
2024-03-06T06:37:20.734Z,47.60
2024-03-06T06:40:59.210Z,43.91
2024-03-06T06:48:55.547Z,41.15
2024-03-06T06:52:34.721Z,39.92
2024-03-06T06:56:13.897Z,39.26
2024-03-06T06:59:46.638Z,38.09
2024-03-06T07:03:26.063Z,38.42
2024-03-06T07:11:27.876Z,37.95
2024-03-06T07:15:13.688Z,37.16
2024-03-06T07:19:00.327Z,37.65
2024-03-06T07:22:38.074Z,37.43
2024-03-06T07:26:29.367Z,37.30
2024-03-06T07:30:14.985Z,37.85
2024-03-06T07:34:02.737Z,37.79
2024-03-06T07:37:46.062Z,37.65
2024-03-06T07:45:13.431Z,38.17
2024-03-06T07:49:11.046Z,37.50
2024-03-06T07:52:44.434Z,36.47
2024-03-06T07:56:47.627Z,36.82
2024-03-06T08:00:41.042Z,36.34
2024-03-06T08:03:54.674Z,37.45
2024-03-06T08:07:42.606Z,36.95
2024-03-06T08:11:31.129Z,35.92
2024-03-06T08:15:17.428Z,36.63
2024-03-06T08:18:33.729Z,36.25
2024-03-06T08:22:12.499Z,35.59
2024-03-06T08:26:12.990Z,34.35
2024-03-06T08:30:01.129Z,34.31
2024-03-06T08:33:32.056Z,34.92
2024-03-06T08:41:22.921Z,34.68
2024-03-06T08:49:24.109Z,35.89
2024-03-06T08:53:12.054Z,36.40
2024-03-06T08:57:03.358Z,36.88
2024-03-06T09:00:21.699Z,36.50
2024-03-06T09:04:28.052Z,36.92
2024-03-06T09:12:21.594Z,37.62
2024-03-06T09:16:12.973Z,36.54
2024-03-06T09:24:15.574Z,36.15
2024-03-06T09:36:16.601Z,35.53
2024-03-06T09:44:13.302Z,37.32
2024-03-06T09:47:57.480Z,37.72
2024-03-06T10:08:18.350Z,39.20
2024-03-06T10:16:16.894Z,39.62
2024-03-06T10:20:06.806Z,39.98
2024-03-06T10:28:21.595Z,40.15
2024-03-06T10:32:08.843Z,40.59
2024-03-06T10:36:01.155Z,39.17
2024-03-06T10:44:26.692Z,40.52
2024-03-06T10:48:09.787Z,41.10
2024-03-06T10:52:07.309Z,41.22
2024-03-06T10:55:58.343Z,41.50
2024-03-06T11:00:03.127Z,42.28
2024-03-06T11:04:04.503Z,42.83
2024-03-06T11:12:01.768Z,43.20
2024-03-06T11:20:11.913Z,44.03
2024-03-06T11:23:56.196Z,44.01
2024-03-06T11:27:26.645Z,44.07
2024-03-06T11:31:17.140Z,43.56
2024-03-06T11:47:46.899Z,43.69
2024-03-06T11:51:40.909Z,43.83
2024-03-06T11:59:25.245Z,44.63
2024-03-06T12:03:07.012Z,44.41
2024-03-06T12:07:00.797Z,44.64
2024-03-06T12:10:43.833Z,44.44
2024-03-06T12:14:30.924Z,43.56
2024-03-06T12:18:22.504Z,43.84
2024-03-06T12:22:17.346Z,44.17
2024-03-06T12:34:42.691Z,44.53
2024-03-06T12:38:35.377Z,44.84
2024-03-06T12:42:23.506Z,44.63
2024-03-06T12:46:25.476Z,44.23
2024-03-06T12:50:31.967Z,44.04
2024-03-06T12:54:18.517Z,44.67
2024-03-06T12:57:58.815Z,44.94
2024-03-06T13:05:51.780Z,44.95
2024-03-06T13:09:32.310Z,45.04
2024-03-06T13:17:26.833Z,44.37
2024-03-06T13:21:05.243Z,44.72
2024-03-06T13:29:30.181Z,44.80
2024-03-06T13:46:24.512Z,44.30
2024-03-06T13:50:22.849Z,45.10
2024-03-06T13:54:14.278Z,44.86
2024-03-06T13:57:51.269Z,45.00
2024-03-06T14:01:49.033Z,45.11
2024-03-06T14:05:29.561Z,44.95
2024-03-06T14:08:59.300Z,44.78
2024-03-06T14:12:41.268Z,44.53
2024-03-06T14:16:27.552Z,44.27
2024-03-06T14:20:17.771Z,44.48
2024-03-06T14:24:10.902Z,44.56
2024-03-06T14:27:50.483Z,44.46
2024-03-06T14:35:49.858Z,44.68
2024-03-06T14:44:18.706Z,44.74
2024-03-06T15:00:30.635Z,45.04
2024-03-06T15:04:20.935Z,45.28
2024-03-06T15:11:55.551Z,45.75
2024-03-06T15:15:22.368Z,45.74
2024-03-06T15:19:15.578Z,45.98
2024-03-06T15:31:49.483Z,46.57
2024-03-06T15:35:37.434Z,46.84
2024-03-06T15:39:14.456Z,47.14
2024-03-06T15:42:40.234Z,47.17
2024-03-06T15:46:27.368Z,47.32
2024-03-06T15:58:40.864Z,48.28
2024-03-06T16:02:32.761Z,48.30
2024-03-06T16:06:32.079Z,48.68
2024-03-06T16:10:26.912Z,48.72
2024-03-06T16:18:14.074Z,49.18
2024-03-06T16:25:53.518Z,49.55
2024-03-06T16:29:49.423Z,49.63
2024-03-06T16:33:45.060Z,49.91
2024-03-06T16:37:31.746Z,49.97
2024-03-06T16:49:16.564Z,50.85
2024-03-06T16:52:53.563Z,50.80
2024-03-06T16:56:42.542Z,51.16
2024-03-06T17:00:30.192Z,51.40
2024-03-06T17:08:36.302Z,51.50
2024-03-06T17:12:25.231Z,51.71
2024-03-06T17:15:58.675Z,52.01
2024-03-06T17:19:40.596Z,52.15
2024-03-06T17:23:04.200Z,52.20
2024-03-06T17:26:44.248Z,52.66
2024-03-06T17:30:26.209Z,52.94
2024-03-06T17:34:08.334Z,52.68
2024-03-06T17:38:01.146Z,53.04
2024-03-06T17:45:47.673Z,53.32
2024-03-06T17:49:41.089Z,53.51
2024-03-06T17:53:25.287Z,53.84
2024-03-06T18:05:24.215Z,54.08
2024-03-06T18:09:11.134Z,54.55
2024-03-06T18:12:27.257Z,55.08
2024-03-06T18:15:53.564Z,54.99
2024-03-06T18:19:18.945Z,55.24
2024-03-06T18:22:50.824Z,55.34
2024-03-06T18:26:06.388Z,55.07
2024-03-06T18:29:01.790Z,55.37
2024-03-06T18:32:37.253Z,55.47
2024-03-06T18:35:54.876Z,55.47
2024-03-06T18:39:50.717Z,55.45
2024-03-06T18:43:36.146Z,55.67
2024-03-06T18:51:22.936Z,55.59
2024-03-06T18:59:41.198Z,55.85
2024-03-06T19:03:38.514Z,55.97
2024-03-06T19:07:08.094Z,56.05
2024-03-06T19:10:38.725Z,56.64
2024-03-06T19:14:23.644Z,56.26
2024-03-06T19:17:36.687Z,56.47
2024-03-06T19:21:25.684Z,56.57
2024-03-06T19:24:48.205Z,56.56
2024-03-06T19:28:25.632Z,56.88
2024-03-06T19:31:43.794Z,57.06
2024-03-06T19:35:36.591Z,57.00
2024-03-06T19:39:10.384Z,57.24
2024-03-06T19:46:59.974Z,57.37
2024-03-06T19:50:41.617Z,57.69
2024-03-06T19:53:51.503Z,57.76
2024-03-06T19:57:21.942Z,57.64
2024-03-06T20:00:40.017Z,57.93
2024-03-06T20:04:11.107Z,57.86
2024-03-06T20:07:38.679Z,58.03
2024-03-06T20:11:12.000Z,58.15
2024-03-06T20:14:33.681Z,58.12
2024-03-06T20:18:14.278Z,58.17
2024-03-06T20:21:51.606Z,58.42
2024-03-06T20:25:36.835Z,58.59
2024-03-06T20:33:53.052Z,58.71
2024-03-06T20:37:40.079Z,58.75
2024-03-06T20:45:45.462Z,58.97
2024-03-06T20:53:38.788Z,59.19
2024-03-06T21:01:26.805Z,59.30
2024-03-06T21:04:53.376Z,59.45
2024-03-06T21:08:15.225Z,59.49
2024-03-06T21:11:58.013Z,59.83
2024-03-06T21:15:43.593Z,59.89
2024-03-06T21:19:31.502Z,59.97
2024-03-06T21:23:11.953Z,60.02
2024-03-06T21:26:54.205Z,60.12
2024-03-06T21:30:45.748Z,60.12
2024-03-06T21:34:38.061Z,60.32
2024-03-06T21:38:12.092Z,60.34
2024-03-06T21:41:59.977Z,60.44
2024-03-06T21:45:33.156Z,60.45
2024-03-06T21:49:13.777Z,60.58
2024-03-06T21:53:06.269Z,60.59
2024-03-06T21:56:54.419Z,60.60
2024-03-06T22:16:58.523Z,61.13
2024-03-06T22:25:09.004Z,61.31
2024-03-06T22:28:57.082Z,61.47
2024-03-06T22:32:47.046Z,61.33
2024-03-06T22:36:46.342Z,61.50
2024-03-06T22:40:38.692Z,61.71
2024-03-06T22:48:56.260Z,61.85
2024-03-06T22:52:53.603Z,61.83
2024-03-06T22:56:48.539Z,62.10
2024-03-06T23:00:42.459Z,62.25
2024-03-06T23:04:29.644Z,62.51
2024-03-06T23:08:32.799Z,62.46
2024-03-06T23:12:21.837Z,62.72
2024-03-06T23:16:15.197Z,62.62
2024-03-06T23:20:12.965Z,62.58
2024-03-06T23:23:58.431Z,62.80
2024-03-06T23:27:54.133Z,63.00
2024-03-06T23:31:51.810Z,62.83
2024-03-06T23:35:48.494Z,62.83
2024-03-06T23:39:45.918Z,62.96
2024-03-06T23:43:26.806Z,63.24
2024-03-06T23:47:32.203Z,63.30
2024-03-06T23:51:22.977Z,63.39
2024-03-06T23:55:30.010Z,63.38
